sensor_id;sensor_type;location;lat;lon;timestamp;temperature;humidity
31677;DHT22;18385;51.572;6.578;2024-02-23T00:00:27;8.70;65.40
31677;DHT22;18385;51.572;6.578;2024-02-23T00:02:53;8.70;65.30
31677;DHT22;18385;51.572;6.578;2024-02-23T00:05:22;8.60;65.30
31677;DHT22;18385;51.572;6.578;2024-02-23T00:07:47;8.70;65.40
31677;DHT22;18385;51.572;6.578;2024-02-23T00:10:13;8.70;65.50
31677;DHT22;18385;51.572;6.578;2024-02-23T00:12:38;8.70;65.50
31677;DHT22;18385;51.572;6.578;2024-02-23T00:15:04;8.60;65.30
31677;DHT22;18385;51.572;6.578;2024-02-23T00:17:30;8.60;65.30
31677;DHT22;18385;51.572;6.578;2024-02-23T00:19:56;8.60;65.50
31677;DHT22;18385;51.572;6.578;2024-02-23T00:22:22;8.60;65.60
31677;DHT22;18385;51.572;6.578;2024-02-23T00:24:48;8.70;66.50
31677;DHT22;18385;51.572;6.578;2024-02-23T00:27:14;8.70;65.60
31677;DHT22;18385;51.572;6.578;2024-02-23T00:29:39;8.70;65.50
31677;DHT22;18385;51.572;6.578;2024-02-23T00:32:06;8.80;65.60
31677;DHT22;18385;51.572;6.578;2024-02-23T00:34:32;8.80;65.50
31677;DHT22;18385;51.572;6.578;2024-02-23T00:36:58;8.80;65.30
31677;DHT22;18385;51.572;6.578;2024-02-23T00:39:23;8.80;65.20
31677;DHT22;18385;51.572;6.578;2024-02-23T00:41:49;8.70;65.10
31677;DHT22;18385;51.572;6.578;2024-02-23T00:44:15;8.60;65.10
31677;DHT22;18385;51.572;6.578;2024-02-23T00:46:40;8.50;65.20
31677;DHT22;18385;51.572;6.578;2024-02-23T00:49:06;8.40;65.30
31677;DHT22;18385;51.572;6.578;2024-02-23T00:51:32;8.30;65.40
31677;DHT22;18385;51.572;6.578;2024-02-23T00:53:57;8.30;65.60
31677;DHT22;18385;51.572;6.578;2024-02-23T00:56:23;8.20;65.70
31677;DHT22;18385;51.572;6.578;2024-02-23T00:58:49;8.20;66.00
31677;DHT22;18385;51.572;6.578;2024-02-23T01:01:14;8.20;66.10
31677;DHT22;18385;51.572;6.578;2024-02-23T01:03:40;8.20;66.30
31677;DHT22;18385;51.572;6.578;2024-02-23T01:06:06;8.20;66.30
31677;DHT22;18385;51.572;6.578;2024-02-23T01:08:31;8.20;66.40
31677;DHT22;18385;51.572;6.578;2024-02-23T01:10:57;8.30;66.30
31677;DHT22;18385;51.572;6.578;2024-02-23T01:13:23;8.30;66.20
31677;DHT22;18385;51.572;6.578;2024-02-23T01:15:49;8.30;66.40
31677;DHT22;18385;51.572;6.578;2024-02-23T01:18:14;8.40;66.40
31677;DHT22;18385;51.572;6.578;2024-02-23T01:20:40;8.40;66.30
31677;DHT22;18385;51.572;6.578;2024-02-23T01:23:05;8.40;66.40
31677;DHT22;18385;51.572;6.578;2024-02-23T01:25:31;8.50;66.50
31677;DHT22;18385;51.572;6.578;2024-02-23T01:27:57;8.50;66.40
31677;DHT22;18385;51.572;6.578;2024-02-23T01:30:23;8.50;66.40
31677;DHT22;18385;51.572;6.578;2024-02-23T01:32:48;8.50;66.50
31677;DHT22;18385;51.572;6.578;2024-02-23T01:35:16;8.50;66.60
31677;DHT22;18385;51.572;6.578;2024-02-23T01:37:41;8.50;66.50
31677;DHT22;18385;51.572;6.578;2024-02-23T01:40:07;8.50;66.50
31677;DHT22;18385;51.572;6.578;2024-02-23T01:42:33;8.50;66.50
31677;DHT22;18385;51.572;6.578;2024-02-23T01:44:59;8.50;66.60
31677;DHT22;18385;51.572;6.578;2024-02-23T01:47:25;8.50;66.50
31677;DHT22;18385;51.572;6.578;2024-02-23T01:49:53;8.50;66.60
31677;DHT22;18385;51.572;6.578;2024-02-23T01:52:20;8.50;66.60
31677;DHT22;18385;51.572;6.578;2024-02-23T01:54:46;8.50;66.80
31677;DHT22;18385;51.572;6.578;2024-02-23T01:57:11;8.50;66.70
31677;DHT22;18385;51.572;6.578;2024-02-23T01:59:38;8.50;66.70
31677;DHT22;18385;51.572;6.578;2024-02-23T02:02:05;8.50;66.70
31677;DHT22;18385;51.572;6.578;2024-02-23T02:04:31;8.50;66.70
31677;DHT22;18385;51.572;6.578;2024-02-23T02:06:58;8.50;66.70
31677;DHT22;18385;51.572;6.578;2024-02-23T02:09:25;8.60;66.70
31677;DHT22;18385;51.572;6.578;2024-02-23T02:11:51;8.50;66.70
31677;DHT22;18385;51.572;6.578;2024-02-23T02:14:17;8.60;66.90
31677;DHT22;18385;51.572;6.578;2024-02-23T02:16:43;8.60;66.80
31677;DHT22;18385;51.572;6.578;2024-02-23T02:19:12;8.60;66.70
31677;DHT22;18385;51.572;6.578;2024-02-23T02:21:39;8.60;66.60
31677;DHT22;18385;51.572;6.578;2024-02-23T02:24:05;8.60;66.70
31677;DHT22;18385;51.572;6.578;2024-02-23T02:26:31;8.70;66.70
31677;DHT22;18385;51.572;6.578;2024-02-23T02:28:57;8.70;66.80
31677;DHT22;18385;51.572;6.578;2024-02-23T02:31:23;8.70;66.70
31677;DHT22;18385;51.572;6.578;2024-02-23T02:33:49;8.70;66.70
31677;DHT22;18385;51.572;6.578;2024-02-23T02:36:14;8.70;66.60
31677;DHT22;18385;51.572;6.578;2024-02-23T02:38:40;8.60;66.60
31677;DHT22;18385;51.572;6.578;2024-02-23T02:41:06;8.60;66.60
31677;DHT22;18385;51.572;6.578;2024-02-23T02:43:31;8.60;66.60
31677;DHT22;18385;51.572;6.578;2024-02-23T02:45:58;8.60;66.60
31677;DHT22;18385;51.572;6.578;2024-02-23T02:48:24;8.50;66.60
31677;DHT22;18385;51.572;6.578;2024-02-23T02:50:50;8.50;66.70
31677;DHT22;18385;51.572;6.578;2024-02-23T02:53:16;8.50;66.70
31677;DHT22;18385;51.572;6.578;2024-02-23T02:55:43;8.50;66.70
31677;DHT22;18385;51.572;6.578;2024-02-23T02:58:09;8.50;66.80
31677;DHT22;18385;51.572;6.578;2024-02-23T03:00:35;8.40;66.80
31677;DHT22;18385;51.572;6.578;2024-02-23T03:03:00;8.40;66.80
31677;DHT22;18385;51.572;6.578;2024-02-23T03:05:26;8.40;66.70
31677;DHT22;18385;51.572;6.578;2024-02-23T03:07:52;8.40;66.70
31677;DHT22;18385;51.572;6.578;2024-02-23T03:10:18;8.40;66.80
31677;DHT22;18385;51.572;6.578;2024-02-23T03:12:43;8.30;66.70
31677;DHT22;18385;51.572;6.578;2024-02-23T03:15:09;8.30;66.80
31677;DHT22;18385;51.572;6.578;2024-02-23T03:17:38;8.30;66.80
31677;DHT22;18385;51.572;6.578;2024-02-23T03:20:04;8.30;66.70
31677;DHT22;18385;51.572;6.578;2024-02-23T03:22:39;8.30;67.00
31677;DHT22;18385;51.572;6.578;2024-02-23T03:25:05;8.20;66.80
31677;DHT22;18385;51.572;6.578;2024-02-23T03:27:35;8.20;66.80
31677;DHT22;18385;51.572;6.578;2024-02-23T03:30:06;8.20;66.90
31677;DHT22;18385;51.572;6.578;2024-02-23T03:32:35;8.20;67.00
31677;DHT22;18385;51.572;6.578;2024-02-23T03:35:05;8.30;67.10
31677;DHT22;18385;51.572;6.578;2024-02-23T03:37:31;8.40;67.10
31677;DHT22;18385;51.572;6.578;2024-02-23T03:39:57;8.40;66.90
31677;DHT22;18385;51.572;6.578;2024-02-23T03:42:23;8.30;66.70
31677;DHT22;18385;51.572;6.578;2024-02-23T03:44:49;8.30;66.70
31677;DHT22;18385;51.572;6.578;2024-02-23T03:47:14;8.30;66.90
31677;DHT22;18385;51.572;6.578;2024-02-23T03:49:40;8.50;67.30
31677;DHT22;18385;51.572;6.578;2024-02-23T03:52:05;8.60;67.10
31677;DHT22;18385;51.572;6.578;2024-02-23T03:54:31;8.60;66.70
31677;DHT22;18385;51.572;6.578;2024-02-23T03:56:57;8.50;66.60
31677;DHT22;18385;51.572;6.578;2024-02-23T03:59:23;8.50;66.50
31677;DHT22;18385;51.572;6.578;2024-02-23T04:01:49;8.50;66.60
31677;DHT22;18385;51.572;6.578;2024-02-23T04:04:15;8.40;66.50
31677;DHT22;18385;51.572;6.578;2024-02-23T04:06:40;8.40;66.60
31677;DHT22;18385;51.572;6.578;2024-02-23T04:09:06;8.30;66.70
31677;DHT22;18385;51.572;6.578;2024-02-23T04:11:34;8.30;66.80
31677;DHT22;18385;51.572;6.578;2024-02-23T04:14:00;8.30;66.80
31677;DHT22;18385;51.572;6.578;2024-02-23T04:16:26;8.30;66.90
31677;DHT22;18385;51.572;6.578;2024-02-23T04:18:53;8.40;66.80
31677;DHT22;18385;51.572;6.578;2024-02-23T04:21:19;8.40;66.70
31677;DHT22;18385;51.572;6.578;2024-02-23T04:23:44;8.40;66.80
31677;DHT22;18385;51.572;6.578;2024-02-23T04:26:10;8.40;66.80
31677;DHT22;18385;51.572;6.578;2024-02-23T04:28:40;8.40;66.80
31677;DHT22;18385;51.572;6.578;2024-02-23T04:31:06;8.40;66.80
31677;DHT22;18385;51.572;6.578;2024-02-23T04:33:31;8.40;66.70
31677;DHT22;18385;51.572;6.578;2024-02-23T04:35:59;8.40;66.70
31677;DHT22;18385;51.572;6.578;2024-02-23T04:38:24;8.50;66.80
31677;DHT22;18385;51.572;6.578;2024-02-23T04:40:50;8.50;66.70
31677;DHT22;18385;51.572;6.578;2024-02-23T04:43:16;8.50;66.80
31677;DHT22;18385;51.572;6.578;2024-02-23T04:45:41;8.60;66.80
31677;DHT22;18385;51.572;6.578;2024-02-23T04:48:07;8.70;66.70
31677;DHT22;18385;51.572;6.578;2024-02-23T04:50:33;8.70;66.60
31677;DHT22;18385;51.572;6.578;2024-02-23T04:52:58;8.70;66.50
31677;DHT22;18385;51.572;6.578;2024-02-23T04:55:24;8.70;66.30
31677;DHT22;18385;51.572;6.578;2024-02-23T04:57:50;8.70;66.40
31677;DHT22;18385;51.572;6.578;2024-02-23T05:00:16;8.80;66.40
31677;DHT22;18385;51.572;6.578;2024-02-23T05:02:42;8.70;66.30
31677;DHT22;18385;51.572;6.578;2024-02-23T05:05:08;8.70;66.30
31677;DHT22;18385;51.572;6.578;2024-02-23T05:07:34;8.60;66.30
31677;DHT22;18385;51.572;6.578;2024-02-23T05:10:00;8.60;66.40
31677;DHT22;18385;51.572;6.578;2024-02-23T05:12:26;8.50;66.40
31677;DHT22;18385;51.572;6.578;2024-02-23T05:14:52;8.50;66.40
31677;DHT22;18385;51.572;6.578;2024-02-23T05:17:17;8.50;66.40
31677;DHT22;18385;51.572;6.578;2024-02-23T05:19:43;8.50;66.50
31677;DHT22;18385;51.572;6.578;2024-02-23T05:22:09;8.50;66.60
31677;DHT22;18385;51.572;6.578;2024-02-23T05:24:34;8.40;66.50
31677;DHT22;18385;51.572;6.578;2024-02-23T05:27:00;8.40;66.50
31677;DHT22;18385;51.572;6.578;2024-02-23T05:29:28;8.50;66.70
31677;DHT22;18385;51.572;6.578;2024-02-23T05:31:54;8.60;66.80
31677;DHT22;18385;51.572;6.578;2024-02-23T05:34:20;8.70;66.70
31677;DHT22;18385;51.572;6.578;2024-02-23T05:36:46;8.70;66.40
31677;DHT22;18385;51.572;6.578;2024-02-23T05:39:12;8.80;66.40
31677;DHT22;18385;51.572;6.578;2024-02-23T05:41:39;8.80;66.40
31677;DHT22;18385;51.572;6.578;2024-02-23T05:44:05;8.80;66.30
31677;DHT22;18385;51.572;6.578;2024-02-23T05:46:35;8.90;66.20
31677;DHT22;18385;51.572;6.578;2024-02-23T05:49:01;8.80;66.00
31677;DHT22;18385;51.572;6.578;2024-02-23T05:51:28;8.80;66.00
31677;DHT22;18385;51.572;6.578;2024-02-23T05:53:54;8.80;66.10
31677;DHT22;18385;51.572;6.578;2024-02-23T05:56:20;8.70;66.00
31677;DHT22;18385;51.572;6.578;2024-02-23T05:58:47;8.70;66.10
31677;DHT22;18385;51.572;6.578;2024-02-23T06:01:15;8.70;66.10
31677;DHT22;18385;51.572;6.578;2024-02-23T06:03:41;8.70;66.20
31677;DHT22;18385;51.572;6.578;2024-02-23T06:06:07;8.70;66.50
31677;DHT22;18385;51.572;6.578;2024-02-23T06:08:33;8.80;66.60
31677;DHT22;18385;51.572;6.578;2024-02-23T06:10:59;8.90;66.60
31677;DHT22;18385;51.572;6.578;2024-02-23T06:13:25;9.00;66.50
31677;DHT22;18385;51.572;6.578;2024-02-23T06:15:51;9.10;66.30
31677;DHT22;18385;51.572;6.578;2024-02-23T06:18:17;9.20;66.20
31677;DHT22;18385;51.572;6.578;2024-02-23T06:20:43;9.30;66.10
31677;DHT22;18385;51.572;6.578;2024-02-23T06:23:08;9.30;65.90
31677;DHT22;18385;51.572;6.578;2024-02-23T06:25:34;9.40;65.90
31677;DHT22;18385;51.572;6.578;2024-02-23T06:27:59;9.50;65.80
31677;DHT22;18385;51.572;6.578;2024-02-23T06:30:25;9.50;65.60
31677;DHT22;18385;51.572;6.578;2024-02-23T06:32:51;9.50;65.50
31677;DHT22;18385;51.572;6.578;2024-02-23T06:35:16;9.50;65.50
31677;DHT22;18385;51.572;6.578;2024-02-23T06:37:42;9.60;65.60
31677;DHT22;18385;51.572;6.578;2024-02-23T06:40:08;9.60;65.50
31677;DHT22;18385;51.572;6.578;2024-02-23T06:42:34;9.60;65.40
31677;DHT22;18385;51.572;6.578;2024-02-23T06:44:59;9.60;65.40
31677;DHT22;18385;51.572;6.578;2024-02-23T06:47:26;9.70;65.40
31677;DHT22;18385;51.572;6.578;2024-02-23T06:49:52;9.70;65.20
31677;DHT22;18385;51.572;6.578;2024-02-23T06:52:17;9.70;65.20
31677;DHT22;18385;51.572;6.578;2024-02-23T06:54:43;9.80;65.20
31677;DHT22;18385;51.572;6.578;2024-02-23T06:57:09;9.80;65.20
31677;DHT22;18385;51.572;6.578;2024-02-23T06:59:35;9.80;65.10
31677;DHT22;18385;51.572;6.578;2024-02-23T07:02:04;9.80;65.10
31677;DHT22;18385;51.572;6.578;2024-02-23T07:04:30;9.80;65.00
31677;DHT22;18385;51.572;6.578;2024-02-23T07:06:55;9.80;65.00
31677;DHT22;18385;51.572;6.578;2024-02-23T07:09:21;9.80;65.00
31677;DHT22;18385;51.572;6.578;2024-02-23T07:11:47;9.90;65.10
31677;DHT22;18385;51.572;6.578;2024-02-23T07:14:13;9.90;65.10
31677;DHT22;18385;51.572;6.578;2024-02-23T07:16:40;10.00;65.00
31677;DHT22;18385;51.572;6.578;2024-02-23T07:19:06;10.00;64.60
31677;DHT22;18385;51.572;6.578;2024-02-23T07:21:33;10.00;64.70
31677;DHT22;18385;51.572;6.578;2024-02-23T07:23:59;10.00;64.70
31677;DHT22;18385;51.572;6.578;2024-02-23T07:26:25;10.10;64.70
31677;DHT22;18385;51.572;6.578;2024-02-23T07:28:56;10.10;64.60
31677;DHT22;18385;51.572;6.578;2024-02-23T07:31:25;10.20;64.60
31677;DHT22;18385;51.572;6.578;2024-02-23T07:33:54;10.30;64.50
31677;DHT22;18385;51.572;6.578;2024-02-23T07:36:20;10.30;64.20
31677;DHT22;18385;51.572;6.578;2024-02-23T07:38:52;10.20;64.10
31677;DHT22;18385;51.572;6.578;2024-02-23T07:41:17;10.20;64.10
31677;DHT22;18385;51.572;6.578;2024-02-23T07:43:43;10.20;64.00
31677;DHT22;18385;51.572;6.578;2024-02-23T07:46:09;10.20;64.20
31677;DHT22;18385;51.572;6.578;2024-02-23T07:48:38;10.20;64.20
31677;DHT22;18385;51.572;6.578;2024-02-23T07:51:10;10.30;64.00
31677;DHT22;18385;51.572;6.578;2024-02-23T07:53:36;10.20;63.80
31677;DHT22;18385;51.572;6.578;2024-02-23T07:56:07;10.20;63.90
31677;DHT22;18385;51.572;6.578;2024-02-23T07:58:32;10.30;64.00
31677;DHT22;18385;51.572;6.578;2024-02-23T08:00:58;10.40;63.90
31677;DHT22;18385;51.572;6.578;2024-02-23T08:03:23;10.40;63.70
31677;DHT22;18385;51.572;6.578;2024-02-23T08:05:49;10.50;63.70
31677;DHT22;18385;51.572;6.578;2024-02-23T08:08:15;10.50;63.40
31677;DHT22;18385;51.572;6.578;2024-02-23T08:10:41;10.60;63.50
31677;DHT22;18385;51.572;6.578;2024-02-23T08:13:07;10.60;63.20
31677;DHT22;18385;51.572;6.578;2024-02-23T08:15:35;10.60;63.00
31677;DHT22;18385;51.572;6.578;2024-02-23T08:18:01;10.50;62.80
31677;DHT22;18385;51.572;6.578;2024-02-23T08:20:27;10.40;62.90
31677;DHT22;18385;51.572;6.578;2024-02-23T08:22:55;10.30;63.10
31677;DHT22;18385;51.572;6.578;2024-02-23T08:25:21;10.50;63.70
31677;DHT22;18385;51.572;6.578;2024-02-23T08:27:47;10.70;63.70
31677;DHT22;18385;51.572;6.578;2024-02-23T08:30:14;10.90;63.50
31677;DHT22;18385;51.572;6.578;2024-02-23T08:32:49;11.00;62.60
31677;DHT22;18385;51.572;6.578;2024-02-23T08:35:23;10.90;62.30
31677;DHT22;18385;51.572;6.578;2024-02-23T08:37:52;11.00;62.80
31677;DHT22;18385;51.572;6.578;2024-02-23T08:40:17;11.10;62.90
31677;DHT22;18385;51.572;6.578;2024-02-23T08:42:43;11.20;62.60
31677;DHT22;18385;51.572;6.578;2024-02-23T08:45:12;11.30;62.40
31677;DHT22;18385;51.572;6.578;2024-02-23T08:47:39;11.40;62.30
31677;DHT22;18385;51.572;6.578;2024-02-23T08:50:06;11.40;61.90
31677;DHT22;18385;51.572;6.578;2024-02-23T08:52:32;11.40;61.80
31677;DHT22;18385;51.572;6.578;2024-02-23T08:54:58;11.30;61.80
31677;DHT22;18385;51.572;6.578;2024-02-23T08:57:30;11.30;61.80
31677;DHT22;18385;51.572;6.578;2024-02-23T08:59:56;11.20;61.70
31677;DHT22;18385;51.572;6.578;2024-02-23T09:02:24;11.30;61.90
31677;DHT22;18385;51.572;6.578;2024-02-23T09:04:52;11.40;61.70
31677;DHT22;18385;51.572;6.578;2024-02-23T09:07:18;11.40;61.60
31677;DHT22;18385;51.572;6.578;2024-02-23T09:09:47;11.40;61.60
31677;DHT22;18385;51.572;6.578;2024-02-23T09:12:16;11.50;61.20
31677;DHT22;18385;51.572;6.578;2024-02-23T09:14:42;11.50;61.30
31677;DHT22;18385;51.572;6.578;2024-02-23T09:17:09;11.60;61.50
31677;DHT22;18385;51.572;6.578;2024-02-23T09:19:36;11.70;61.30
31677;DHT22;18385;51.572;6.578;2024-02-23T09:22:02;11.80;62.00
31677;DHT22;18385;51.572;6.578;2024-02-23T09:24:28;11.80;61.00
31677;DHT22;18385;51.572;6.578;2024-02-23T09:26:54;11.90;60.90
31677;DHT22;18385;51.572;6.578;2024-02-23T09:29:20;12.00;60.50
31677;DHT22;18385;51.572;6.578;2024-02-23T09:31:47;11.90;60.60
31677;DHT22;18385;51.572;6.578;2024-02-23T09:34:13;12.00;60.70
31677;DHT22;18385;51.572;6.578;2024-02-23T09:36:39;12.00;60.30
31677;DHT22;18385;51.572;6.578;2024-02-23T09:39:04;12.10;60.30
31677;DHT22;18385;51.572;6.578;2024-02-23T09:41:30;12.10;59.90
31677;DHT22;18385;51.572;6.578;2024-02-23T09:44:00;12.10;60.10
31677;DHT22;18385;51.572;6.578;2024-02-23T09:46:26;12.20;60.20
31677;DHT22;18385;51.572;6.578;2024-02-23T09:48:53;12.30;59.90
31677;DHT22;18385;51.572;6.578;2024-02-23T09:51:21;12.30;59.70
31677;DHT22;18385;51.572;6.578;2024-02-23T09:53:49;12.30;59.70
31677;DHT22;18385;51.572;6.578;2024-02-23T09:56:16;12.20;59.30
31677;DHT22;18385;51.572;6.578;2024-02-23T09:58:44;12.10;59.30
31677;DHT22;18385;51.572;6.578;2024-02-23T10:01:11;12.20;59.80
31677;DHT22;18385;51.572;6.578;2024-02-23T10:03:38;12.30;59.70
31677;DHT22;18385;51.572;6.578;2024-02-23T10:06:07;12.40;59.30
31677;DHT22;18385;51.572;6.578;2024-02-23T10:08:41;12.40;59.30
31677;DHT22;18385;51.572;6.578;2024-02-23T10:11:13;12.50;59.10
31677;DHT22;18385;51.572;6.578;2024-02-23T10:13:41;12.50;58.70
31677;DHT22;18385;51.572;6.578;2024-02-23T10:16:07;12.50;58.60
31677;DHT22;18385;51.572;6.578;2024-02-23T10:18:33;12.50;58.80
31677;DHT22;18385;51.572;6.578;2024-02-23T10:20:58;12.60;58.80
31677;DHT22;18385;51.572;6.578;2024-02-23T10:23:24;12.70;58.70
31677;DHT22;18385;51.572;6.578;2024-02-23T10:25:50;12.70;58.60
31677;DHT22;18385;51.572;6.578;2024-02-23T10:28:19;12.70;58.60
31677;DHT22;18385;51.572;6.578;2024-02-23T10:30:48;12.70;58.10
31677;DHT22;18385;51.572;6.578;2024-02-23T10:33:14;12.50;57.90
31677;DHT22;18385;51.572;6.578;2024-02-23T10:35:43;12.40;58.10
31677;DHT22;18385;51.572;6.578;2024-02-23T10:38:11;12.30;58.20
31677;DHT22;18385;51.572;6.578;2024-02-23T10:40:41;12.20;58.40
31677;DHT22;18385;51.572;6.578;2024-02-23T10:43:18;12.20;58.40
31677;DHT22;18385;51.572;6.578;2024-02-23T10:45:57;12.20;58.40
31677;DHT22;18385;51.572;6.578;2024-02-23T11:02:56;12.10;58.10
31677;DHT22;18385;51.572;6.578;2024-02-23T11:06:05;12.20;58.10
31677;DHT22;18385;51.572;6.578;2024-02-23T11:08:50;12.40;58.00
31677;DHT22;18385;51.572;6.578;2024-02-23T11:11:57;12.50;57.90
31677;DHT22;18385;51.572;6.578;2024-02-23T11:15:14;12.70;57.90
31677;DHT22;18385;51.572;6.578;2024-02-23T11:17:49;12.70;57.80
31677;DHT22;18385;51.572;6.578;2024-02-23T11:20:58;12.70;57.30
31677;DHT22;18385;51.572;6.578;2024-02-23T11:23:56;12.70;57.20
31677;DHT22;18385;51.572;6.578;2024-02-23T11:26:32;12.70;56.90
31677;DHT22;18385;51.572;6.578;2024-02-23T11:29:12;12.50;57.00
31677;DHT22;18385;51.572;6.578;2024-02-23T11:31:51;12.50;57.10
31677;DHT22;18385;51.572;6.578;2024-02-23T11:34:22;12.50;56.90
31677;DHT22;18385;51.572;6.578;2024-02-23T11:36:53;12.40;57.00
31677;DHT22;18385;51.572;6.578;2024-02-23T11:39:19;12.40;57.00
31677;DHT22;18385;51.572;6.578;2024-02-23T11:41:48;12.30;56.90
31677;DHT22;18385;51.572;6.578;2024-02-23T11:44:14;12.20;57.80
31677;DHT22;18385;51.572;6.578;2024-02-23T11:46:43;12.30;57.10
31677;DHT22;18385;51.572;6.578;2024-02-23T11:49:08;12.10;57.00
31677;DHT22;18385;51.572;6.578;2024-02-23T11:51:35;12.10;57.10
31677;DHT22;18385;51.572;6.578;2024-02-23T11:54:02;12.00;57.20
31677;DHT22;18385;51.572;6.578;2024-02-23T11:56:29;11.90;57.40
31677;DHT22;18385;51.572;6.578;2024-02-23T11:58:55;11.90;57.50
31677;DHT22;18385;51.572;6.578;2024-02-23T12:01:21;12.00;57.80
31677;DHT22;18385;51.572;6.578;2024-02-23T12:03:47;12.10;57.70
31677;DHT22;18385;51.572;6.578;2024-02-23T12:06:15;12.20;57.60
31677;DHT22;18385;51.572;6.578;2024-02-23T12:08:44;12.20;57.40
31677;DHT22;18385;51.572;6.578;2024-02-23T12:11:11;12.20;57.60
31677;DHT22;18385;51.572;6.578;2024-02-23T12:13:38;12.20;57.60
31677;DHT22;18385;51.572;6.578;2024-02-23T12:16:04;12.30;57.60
31677;DHT22;18385;51.572;6.578;2024-02-23T12:18:33;12.30;57.50
31677;DHT22;18385;51.572;6.578;2024-02-23T12:21:04;12.30;57.20
31677;DHT22;18385;51.572;6.578;2024-02-23T12:23:50;12.20;57.40
31677;DHT22;18385;51.572;6.578;2024-02-23T12:26:17;12.30;57.70
31677;DHT22;18385;51.572;6.578;2024-02-23T12:28:44;12.40;57.70
31677;DHT22;18385;51.572;6.578;2024-02-23T12:31:11;12.50;57.70
31677;DHT22;18385;51.572;6.578;2024-02-23T12:33:38;12.70;57.70
31677;DHT22;18385;51.572;6.578;2024-02-23T12:36:06;12.80;57.60
31677;DHT22;18385;51.572;6.578;2024-02-23T12:38:32;12.80;57.50
31677;DHT22;18385;51.572;6.578;2024-02-23T12:41:00;12.90;57.50
31677;DHT22;18385;51.572;6.578;2024-02-23T12:43:26;12.90;57.30
31677;DHT22;18385;51.572;6.578;2024-02-23T12:45:56;13.00;57.20
31677;DHT22;18385;51.572;6.578;2024-02-23T12:48:23;13.00;57.40
31677;DHT22;18385;51.572;6.578;2024-02-23T12:50:49;13.00;57.80
31677;DHT22;18385;51.572;6.578;2024-02-23T12:53:34;12.90;57.10
31677;DHT22;18385;51.572;6.578;2024-02-23T12:56:06;12.90;57.10
31677;DHT22;18385;51.572;6.578;2024-02-23T12:58:37;12.90;57.10
31677;DHT22;18385;51.572;6.578;2024-02-23T13:01:03;13.00;57.10
31677;DHT22;18385;51.572;6.578;2024-02-23T13:03:29;12.90;56.80
31677;DHT22;18385;51.572;6.578;2024-02-23T13:05:56;12.80;56.80
31677;DHT22;18385;51.572;6.578;2024-02-23T13:08:23;12.80;56.80
31677;DHT22;18385;51.572;6.578;2024-02-23T13:10:49;12.70;56.90
31677;DHT22;18385;51.572;6.578;2024-02-23T13:13:19;12.70;57.00
31677;DHT22;18385;51.572;6.578;2024-02-23T13:15:46;12.70;57.00
31677;DHT22;18385;51.572;6.578;2024-02-23T13:18:12;12.70;56.70
31677;DHT22;18385;51.572;6.578;2024-02-23T13:20:39;12.80;57.00
31677;DHT22;18385;51.572;6.578;2024-02-23T13:23:05;12.80;56.90
31677;DHT22;18385;51.572;6.578;2024-02-23T13:25:34;12.70;56.50
31677;DHT22;18385;51.572;6.578;2024-02-23T13:28:00;12.70;56.70
31677;DHT22;18385;51.572;6.578;2024-02-23T13:30:26;12.70;56.80
31677;DHT22;18385;51.572;6.578;2024-02-23T13:32:52;12.80;56.80
31677;DHT22;18385;51.572;6.578;2024-02-23T13:35:18;12.80;56.70
31677;DHT22;18385;51.572;6.578;2024-02-23T13:37:44;12.80;56.60
31677;DHT22;18385;51.572;6.578;2024-02-23T13:40:10;12.80;56.50
31677;DHT22;18385;51.572;6.578;2024-02-23T13:42:37;12.80;56.60
31677;DHT22;18385;51.572;6.578;2024-02-23T13:45:08;12.90;56.80
31677;DHT22;18385;51.572;6.578;2024-02-23T13:47:35;13.00;56.80
31677;DHT22;18385;51.572;6.578;2024-02-23T13:50:01;13.10;56.60
31677;DHT22;18385;51.572;6.578;2024-02-23T13:52:28;13.10;56.20
31677;DHT22;18385;51.572;6.578;2024-02-23T13:54:54;12.90;56.10
31677;DHT22;18385;51.572;6.578;2024-02-23T13:57:20;12.70;56.20
31677;DHT22;18385;51.572;6.578;2024-02-23T13:59:45;12.60;56.50
31677;DHT22;18385;51.572;6.578;2024-02-23T14:02:12;12.90;57.00
31677;DHT22;18385;51.572;6.578;2024-02-23T14:04:40;13.00;57.00
31677;DHT22;18385;51.572;6.578;2024-02-23T14:07:07;12.90;56.60
31677;DHT22;18385;51.572;6.578;2024-02-23T14:09:33;13.00;56.90
31677;DHT22;18385;51.572;6.578;2024-02-23T14:11:59;13.00;56.70
31677;DHT22;18385;51.572;6.578;2024-02-23T14:14:25;13.10;56.50
31677;DHT22;18385;51.572;6.578;2024-02-23T14:16:50;13.10;56.50
31677;DHT22;18385;51.572;6.578;2024-02-23T14:19:16;13.00;56.50
31677;DHT22;18385;51.572;6.578;2024-02-23T14:21:42;13.00;56.40
31677;DHT22;18385;51.572;6.578;2024-02-23T14:24:08;13.00;56.40
31677;DHT22;18385;51.572;6.578;2024-02-23T14:26:33;13.00;56.50
31677;DHT22;18385;51.572;6.578;2024-02-23T14:28:59;13.00;56.50
31677;DHT22;18385;51.572;6.578;2024-02-23T14:31:25;13.00;56.50
31677;DHT22;18385;51.572;6.578;2024-02-23T14:33:51;13.00;57.10
31677;DHT22;18385;51.572;6.578;2024-02-23T14:36:18;13.10;56.60
31677;DHT22;18385;51.572;6.578;2024-02-23T14:38:43;13.20;56.70
31677;DHT22;18385;51.572;6.578;2024-02-23T14:41:09;13.40;56.50
31677;DHT22;18385;51.572;6.578;2024-02-23T14:43:36;13.50;56.40
31677;DHT22;18385;51.572;6.578;2024-02-23T14:46:02;13.60;56.40
31677;DHT22;18385;51.572;6.578;2024-02-23T14:48:28;13.60;56.10
31677;DHT22;18385;51.572;6.578;2024-02-23T14:50:54;13.70;56.10
31677;DHT22;18385;51.572;6.578;2024-02-23T14:53:20;13.70;56.00
31677;DHT22;18385;51.572;6.578;2024-02-23T14:55:46;13.70;56.00
31677;DHT22;18385;51.572;6.578;2024-02-23T14:58:14;13.70;55.80
31677;DHT22;18385;51.572;6.578;2024-02-23T15:00:40;13.60;55.80
31677;DHT22;18385;51.572;6.578;2024-02-23T15:03:06;13.60;55.80
31677;DHT22;18385;51.572;6.578;2024-02-23T15:05:31;13.50;55.70
31677;DHT22;18385;51.572;6.578;2024-02-23T15:07:57;13.60;55.80
31677;DHT22;18385;51.572;6.578;2024-02-23T15:10:23;13.50;55.70
31677;DHT22;18385;51.572;6.578;2024-02-23T15:12:49;13.50;55.70
31677;DHT22;18385;51.572;6.578;2024-02-23T15:15:14;13.50;55.80
31677;DHT22;18385;51.572;6.578;2024-02-23T15:17:40;13.50;55.70
31677;DHT22;18385;51.572;6.578;2024-02-23T15:20:08;13.50;55.80
31677;DHT22;18385;51.572;6.578;2024-02-23T15:22:34;13.50;55.70
31677;DHT22;18385;51.572;6.578;2024-02-23T15:25:00;13.40;55.50
31677;DHT22;18385;51.572;6.578;2024-02-23T15:27:26;13.30;55.50
31677;DHT22;18385;51.572;6.578;2024-02-23T15:29:51;13.30;55.60
31677;DHT22;18385;51.572;6.578;2024-02-23T15:32:17;13.30;55.70
31677;DHT22;18385;51.572;6.578;2024-02-23T15:34:43;13.20;55.70
31677;DHT22;18385;51.572;6.578;2024-02-23T15:37:10;13.30;55.80
31677;DHT22;18385;51.572;6.578;2024-02-23T15:39:36;13.30;55.80
31677;DHT22;18385;51.572;6.578;2024-02-23T15:42:02;13.30;55.70
31677;DHT22;18385;51.572;6.578;2024-02-23T15:44:28;13.40;55.70
31677;DHT22;18385;51.572;6.578;2024-02-23T15:46:54;13.60;55.60
31677;DHT22;18385;51.572;6.578;2024-02-23T15:49:19;13.70;55.40
31677;DHT22;18385;51.572;6.578;2024-02-23T15:51:46;13.60;55.00